createdAt,value
2023-12-29T00:01:36.023Z,9.90
2023-12-29T00:04:02.871Z,9.90
2023-12-29T00:06:29.591Z,9.80
2023-12-29T00:08:56.224Z,9.80
2023-12-29T00:11:23.357Z,9.70
2023-12-29T00:13:49.981Z,9.80
2023-12-29T00:16:16.744Z,9.80
2023-12-29T00:18:43.652Z,9.90
2023-12-29T00:21:10.351Z,9.80
2023-12-29T00:23:36.967Z,9.80
2023-12-29T00:26:03.653Z,9.80
2023-12-29T00:28:30.303Z,9.70
2023-12-29T00:31:01.543Z,9.70
2023-12-29T00:33:30.782Z,9.80
2023-12-29T00:35:57.862Z,9.70
2023-12-29T00:38:25.556Z,9.70
2023-12-29T00:40:52.174Z,9.70
2023-12-29T00:43:20.994Z,9.80
2023-12-29T00:45:47.756Z,9.80
2023-12-29T00:48:14.478Z,9.80
2023-12-29T00:50:41.485Z,9.80
2023-12-29T00:53:08.116Z,9.80
2023-12-29T00:55:34.788Z,9.80
2023-12-29T00:58:01.651Z,9.70
2023-12-29T01:00:28.467Z,9.80
2023-12-29T01:02:55.194Z,9.70
2023-12-29T01:05:22.043Z,9.70
2023-12-29T01:07:48.806Z,9.50
2023-12-29T01:10:15.753Z,9.60
2023-12-29T01:12:42.496Z,9.60
2023-12-29T01:15:09.571Z,9.60
2023-12-29T01:17:36.446Z,9.60
2023-12-29T01:20:05.278Z,9.60
2023-12-29T01:22:31.943Z,9.70
2023-12-29T01:25:02.010Z,9.70
2023-12-29T01:27:29.907Z,9.70
2023-12-29T01:29:56.638Z,9.60
2023-12-29T01:32:23.804Z,9.70
2023-12-29T01:34:50.856Z,9.60
2023-12-29T01:37:17.576Z,9.60
2023-12-29T01:39:44.395Z,9.70
2023-12-29T01:42:12.201Z,9.80
2023-12-29T01:44:38.807Z,9.70
2023-12-29T01:47:17.669Z,9.70
2023-12-29T01:49:49.143Z,9.70
2023-12-29T01:52:18.397Z,9.70
2023-12-29T01:54:48.770Z,9.70
2023-12-29T01:57:15.561Z,9.90
2023-12-29T01:59:42.787Z,9.80
2023-12-29T02:02:09.575Z,9.80
2023-12-29T02:04:38.041Z,9.80
2023-12-29T02:07:05.019Z,9.80
2023-12-29T02:09:32.126Z,9.80
2023-12-29T02:11:58.861Z,9.80
2023-12-29T02:14:25.644Z,9.80
2023-12-29T02:17:04.258Z,9.80
2023-12-29T02:19:45.652Z,9.90
2023-12-29T02:22:14.076Z,9.90
2023-12-29T02:24:41.276Z,9.90
2023-12-29T02:27:20.190Z,10.00
2023-12-29T02:29:57.364Z,10.00
2023-12-29T02:32:27.776Z,10.10
2023-12-29T02:34:54.777Z,10.00
2023-12-29T02:37:22.614Z,10.00
2023-12-29T02:39:49.295Z,10.00
2023-12-29T02:42:15.973Z,10.00
2023-12-29T02:44:42.911Z,10.00
2023-12-29T02:47:09.690Z,10.00
2023-12-29T02:49:36.404Z,9.90
2023-12-29T02:52:03.183Z,10.00
2023-12-29T02:54:29.853Z,10.00
2023-12-29T02:56:57.217Z,10.00
2023-12-29T02:59:23.805Z,10.00
2023-12-29T03:01:50.628Z,9.90
2023-12-29T03:04:17.295Z,9.90
2023-12-29T03:06:44.271Z,10.00
2023-12-29T03:09:10.874Z,9.90
2023-12-29T03:11:37.500Z,9.90
2023-12-29T03:14:04.519Z,9.80
2023-12-29T03:16:31.139Z,9.80
2023-12-29T03:18:57.932Z,9.80
2023-12-29T03:21:24.623Z,9.80
2023-12-29T03:23:51.544Z,9.70
2023-12-29T03:26:18.167Z,9.70
2023-12-29T03:28:44.807Z,9.70
2023-12-29T03:31:11.910Z,9.70
2023-12-29T03:33:38.656Z,9.70
2023-12-29T03:36:05.616Z,9.60
2023-12-29T03:38:34.384Z,9.70
2023-12-29T03:41:00.972Z,9.60
2023-12-29T03:43:27.614Z,9.60
2023-12-29T03:45:54.318Z,9.60
2023-12-29T03:48:21.264Z,9.60
2023-12-29T03:50:47.989Z,9.50
2023-12-29T03:53:16.038Z,9.60
2023-12-29T03:55:44.627Z,9.70
2023-12-29T03:58:11.776Z,9.60
2023-12-29T04:00:42.585Z,9.60
2023-12-29T04:03:09.266Z,9.70
2023-12-29T04:05:35.891Z,9.60
2023-12-29T04:08:03.029Z,9.60
2023-12-29T04:10:29.806Z,9.60
2023-12-29T04:12:56.488Z,9.60
2023-12-29T04:15:23.144Z,9.50
2023-12-29T04:17:49.919Z,9.60
2023-12-29T04:20:16.535Z,9.50
2023-12-29T04:22:43.174Z,9.50
2023-12-29T04:25:10.184Z,9.50
2023-12-29T04:27:36.799Z,9.50
2023-12-29T04:30:04.134Z,9.50
2023-12-29T04:32:30.873Z,9.40
2023-12-29T04:34:57.563Z,9.40
2023-12-29T04:37:24.240Z,9.30
2023-12-29T04:39:50.858Z,9.30
2023-12-29T04:42:19.047Z,9.30
2023-12-29T04:44:45.695Z,9.40
2023-12-29T04:47:12.396Z,9.30
2023-12-29T04:49:39.926Z,9.30
2023-12-29T04:52:06.772Z,9.40
2023-12-29T04:54:33.539Z,9.30
2023-12-29T04:57:00.279Z,9.40
2023-12-29T04:59:26.968Z,9.40
2023-12-29T05:01:53.924Z,9.40
2023-12-29T05:04:20.842Z,9.40
2023-12-29T05:06:47.558Z,9.40
2023-12-29T05:09:14.257Z,9.50
2023-12-29T05:11:41.224Z,9.50
2023-12-29T05:14:07.875Z,9.50
2023-12-29T05:16:34.879Z,9.60
2023-12-29T05:19:01.551Z,9.60
2023-12-29T05:21:28.266Z,9.70
2023-12-29T05:23:54.989Z,9.70
2023-12-29T05:26:21.604Z,9.60
2023-12-29T05:28:48.245Z,9.70
2023-12-29T05:31:15.020Z,9.60
2023-12-29T05:33:41.917Z,9.70
2023-12-29T05:36:10.977Z,9.70
2023-12-29T05:38:38.742Z,9.50
2023-12-29T05:41:06.080Z,9.60
2023-12-29T05:43:33.491Z,9.60
2023-12-29T05:46:00.608Z,9.60
2023-12-29T05:48:27.548Z,9.70
2023-12-29T05:50:54.611Z,9.70
2023-12-29T05:53:21.298Z,9.80
2023-12-29T05:55:47.894Z,9.80
2023-12-29T05:58:14.668Z,9.90
2023-12-29T06:00:41.450Z,9.80
2023-12-29T06:03:08.252Z,9.80
2023-12-29T06:05:34.989Z,9.70
2023-12-29T06:08:02.090Z,9.70
2023-12-29T06:10:28.958Z,9.70
2023-12-29T06:12:55.663Z,9.80
2023-12-29T06:15:22.783Z,9.80
2023-12-29T06:17:49.539Z,9.80
2023-12-29T06:20:16.354Z,9.80
2023-12-29T06:22:43.262Z,9.80
2023-12-29T06:25:14.101Z,9.70
2023-12-29T06:27:41.616Z,9.80
2023-12-29T06:30:10.757Z,9.90
2023-12-29T06:32:37.832Z,9.80
2023-12-29T06:35:05.404Z,9.90
2023-12-29T06:37:32.763Z,9.90
2023-12-29T06:39:59.886Z,9.80
2023-12-29T06:42:26.679Z,9.80
2023-12-29T06:44:53.293Z,9.80
2023-12-29T06:47:20.108Z,9.90
2023-12-29T06:49:46.759Z,9.90
2023-12-29T06:52:13.488Z,9.90
2023-12-29T06:54:40.973Z,9.90
2023-12-29T06:57:07.773Z,10.00
2023-12-29T06:59:34.496Z,10.00
2023-12-29T07:02:01.226Z,10.00
2023-12-29T07:04:28.037Z,10.00
2023-12-29T07:06:54.812Z,10.10
2023-12-29T07:09:21.568Z,10.10
2023-12-29T07:11:50.066Z,10.10
2023-12-29T07:14:17.148Z,10.10
2023-12-29T07:16:44.974Z,10.20
2023-12-29T07:19:12.711Z,10.20
2023-12-29T07:21:39.551Z,10.20
2023-12-29T07:24:06.530Z,10.30
2023-12-29T07:26:38.559Z,10.20
2023-12-29T07:29:06.726Z,10.20
2023-12-29T07:31:34.325Z,10.30
2023-12-29T07:34:01.195Z,10.30
2023-12-29T07:36:27.952Z,10.30
2023-12-29T07:38:54.630Z,10.30
2023-12-29T07:41:21.384Z,10.40
2023-12-29T07:43:48.106Z,10.50
2023-12-29T07:46:24.030Z,10.40
2023-12-29T07:48:50.917Z,10.40
2023-12-29T07:51:17.642Z,10.40
2023-12-29T07:53:44.385Z,10.40
2023-12-29T07:56:13.949Z,10.50
2023-12-29T07:58:41.110Z,10.60
2023-12-29T08:01:10.175Z,10.60
2023-12-29T08:03:37.256Z,10.60
2023-12-29T08:06:04.146Z,10.60
2023-12-29T08:08:30.825Z,10.60
2023-12-29T08:10:57.476Z,10.60
2023-12-29T08:13:24.273Z,10.60
2023-12-29T08:15:50.902Z,10.60
2023-12-29T08:18:22.273Z,10.70
2023-12-29T08:20:49.116Z,10.70
2023-12-29T08:23:15.696Z,10.70
2023-12-29T08:25:42.708Z,10.60
2023-12-29T08:28:09.376Z,10.70
2023-12-29T08:30:38.585Z,10.70
2023-12-29T08:33:05.697Z,10.70
2023-12-29T08:35:32.415Z,10.70
2023-12-29T08:37:59.301Z,10.70
2023-12-29T08:40:26.109Z,10.70
2023-12-29T08:42:52.816Z,10.80
2023-12-29T08:45:19.555Z,10.80
2023-12-29T08:47:46.336Z,10.80
2023-12-29T08:50:13.013Z,10.80
2023-12-29T08:52:39.765Z,10.80
2023-12-29T08:55:06.684Z,10.90
2023-12-29T08:57:33.365Z,10.80
2023-12-29T09:00:00.002Z,10.80
2023-12-29T09:02:26.620Z,10.80
2023-12-29T09:04:53.264Z,10.80
2023-12-29T09:07:19.857Z,10.90
2023-12-29T09:09:46.583Z,10.80
2023-12-29T09:12:13.634Z,10.90
2023-12-29T09:14:40.308Z,10.90
2023-12-29T09:17:06.916Z,10.90
2023-12-29T09:19:39.709Z,10.90
2023-12-29T09:22:07.586Z,10.90
2023-12-29T09:24:34.226Z,10.90
2023-12-29T09:27:00.921Z,10.90
2023-12-29T09:29:27.630Z,10.90
2023-12-29T09:31:54.271Z,10.90
2023-12-29T09:34:21.074Z,10.90
2023-12-29T09:36:47.852Z,10.90
2023-12-29T09:39:14.446Z,10.90
2023-12-29T09:41:47.986Z,11.00
2023-12-29T09:44:15.995Z,11.00
2023-12-29T09:46:44.311Z,11.00
2023-12-29T09:49:12.928Z,11.00
2023-12-29T09:51:41.360Z,11.00
2023-12-29T09:54:13.217Z,11.00
2023-12-29T09:56:43.351Z,11.10
2023-12-29T09:59:12.360Z,11.10
2023-12-29T10:01:40.266Z,11.20
2023-12-29T10:04:07.366Z,11.10
2023-12-29T10:06:37.643Z,11.20
2023-12-29T10:09:06.521Z,11.20
2023-12-29T10:11:36.723Z,11.20
2023-12-29T10:14:20.982Z,11.20
2023-12-29T10:16:56.605Z,11.20
2023-12-29T10:19:40.953Z,11.20
2023-12-29T10:22:22.687Z,11.20
2023-12-29T10:24:50.728Z,11.20
2023-12-29T10:27:17.871Z,11.20
2023-12-29T10:29:44.518Z,11.30
2023-12-29T10:32:11.310Z,11.20
2023-12-29T10:34:38.430Z,11.40
2023-12-29T10:37:10.107Z,11.40
2023-12-29T10:39:37.297Z,11.30
2023-12-29T10:42:06.352Z,11.40
2023-12-29T10:44:34.393Z,11.40
2023-12-29T10:47:11.967Z,11.30
2023-12-29T10:49:41.622Z,11.40
2023-12-29T10:52:15.768Z,11.40
2023-12-29T10:54:43.609Z,11.40
2023-12-29T10:57:14.385Z,11.40
2023-12-29T10:59:41.493Z,11.50
2023-12-29T11:02:09.712Z,11.40
2023-12-29T11:04:36.719Z,11.40
2023-12-29T11:07:03.869Z,11.40
2023-12-29T11:09:31.988Z,11.40
2023-12-29T11:12:04.142Z,11.40
2023-12-29T11:14:31.498Z,11.50
2023-12-29T11:17:01.159Z,11.50
2023-12-29T11:19:28.726Z,11.40
2023-12-29T11:21:58.444Z,11.50
2023-12-29T11:24:31.295Z,11.50
2023-12-29T11:27:08.544Z,11.50
2023-12-29T11:29:36.552Z,11.50
2023-12-29T11:32:07.107Z,11.50
2023-12-29T11:34:43.864Z,11.50
2023-12-29T11:37:38.311Z,11.60
2023-12-29T11:40:20.064Z,11.60
2023-12-29T11:42:50.229Z,11.60
2023-12-29T11:45:38.247Z,11.60
2023-12-29T11:48:05.861Z,11.60
2023-12-29T11:50:44.348Z,11.60
2023-12-29T11:53:33.980Z,11.70
2023-12-29T11:56:00.950Z,11.60
2023-12-29T11:58:31.977Z,11.60
2023-12-29T12:00:58.963Z,11.60
2023-12-29T12:03:28.284Z,11.60
2023-12-29T12:06:04.042Z,11.60
2023-12-29T12:08:40.571Z,11.70
2023-12-29T12:11:29.236Z,11.80
2023-12-29T12:13:59.138Z,11.80
2023-12-29T12:16:46.907Z,11.60
2023-12-29T12:19:14.563Z,11.60
2023-12-29T12:21:42.055Z,11.60
2023-12-29T12:24:09.413Z,11.70
2023-12-29T12:26:36.325Z,11.80
2023-12-29T12:29:03.457Z,11.80
2023-12-29T12:31:30.316Z,11.80
2023-12-29T12:34:03.968Z,11.80
2023-12-29T12:36:30.795Z,11.80
2023-12-29T12:38:58.844Z,11.90
2023-12-29T12:41:27.109Z,11.90
2023-12-29T12:44:13.391Z,11.90
2023-12-29T12:46:58.101Z,11.90
2023-12-29T12:49:24.939Z,12.00
2023-12-29T12:51:51.965Z,12.00
2023-12-29T12:54:20.599Z,12.00
2023-12-29T12:56:48.510Z,12.10
2023-12-29T12:59:17.404Z,12.00
2023-12-29T13:01:44.492Z,12.00
2023-12-29T13:04:13.421Z,12.10
2023-12-29T13:06:42.496Z,12.00
2023-12-29T13:09:12.590Z,12.00
2023-12-29T13:11:41.786Z,12.10
2023-12-29T13:14:08.526Z,12.10
2023-12-29T13:16:37.387Z,12.10
2023-12-29T13:19:22.072Z,12.10
2023-12-29T13:21:51.133Z,12.00
2023-12-29T13:24:18.307Z,12.00
2023-12-29T13:26:53.422Z,12.00
2023-12-29T13:29:22.077Z,12.00
2023-12-29T13:31:50.603Z,12.00
2023-12-29T13:34:24.563Z,12.00
2023-12-29T13:37:09.544Z,12.00
2023-12-29T13:39:44.401Z,12.10
2023-12-29T13:42:14.838Z,12.10
2023-12-29T13:44:43.196Z,12.10
2023-12-29T13:47:11.001Z,12.10
2023-12-29T13:49:39.083Z,12.20
2023-12-29T13:52:06.488Z,12.20
2023-12-29T13:54:44.820Z,12.30
2023-12-29T13:57:12.036Z,12.30
2023-12-29T13:59:38.681Z,12.30
2023-12-29T14:02:31.582Z,12.30
2023-12-29T14:05:21.236Z,12.20
2023-12-29T14:07:54.753Z,12.10
2023-12-29T14:10:21.803Z,12.10
2023-12-29T14:12:49.066Z,12.10
2023-12-29T14:15:15.899Z,12.10
2023-12-29T14:17:42.783Z,12.00
2023-12-29T14:20:10.458Z,12.00
2023-12-29T14:22:37.578Z,11.90
2023-12-29T14:25:06.509Z,11.90
2023-12-29T14:27:33.201Z,11.90
2023-12-29T14:30:00.475Z,11.90
2023-12-29T14:32:30.004Z,11.80
2023-12-29T14:34:57.189Z,11.70
2023-12-29T14:37:24.420Z,11.70
2023-12-29T14:39:51.345Z,11.60
2023-12-29T14:42:18.448Z,11.60
2023-12-29T14:44:49.164Z,11.60
2023-12-29T14:47:17.394Z,11.60
2023-12-29T14:49:44.157Z,11.50
2023-12-29T14:52:11.706Z,11.50
2023-12-29T14:54:41.035Z,11.40
2023-12-29T14:57:11.583Z,11.50
2023-12-29T14:59:42.215Z,11.40
2023-12-29T15:02:08.930Z,11.40
2023-12-29T15:04:36.313Z,11.40
2023-12-29T15:07:03.857Z,11.40
2023-12-29T15:09:31.208Z,11.40
2023-12-29T15:11:58.362Z,11.40
2023-12-29T15:14:25.081Z,11.40
2023-12-29T15:16:51.749Z,11.30
2023-12-29T15:19:18.482Z,11.40
2023-12-29T15:21:45.121Z,11.40
2023-12-29T15:24:11.724Z,11.40
2023-12-29T15:26:38.280Z,11.40
2023-12-29T15:29:05.058Z,11.30
2023-12-29T15:31:31.703Z,11.40
2023-12-29T15:33:58.402Z,11.40
2023-12-29T15:36:25.127Z,11.40
2023-12-29T15:38:51.918Z,11.40
2023-12-29T15:41:18.949Z,11.30
2023-12-29T15:43:47.573Z,11.30
2023-12-29T15:46:19.161Z,11.40
2023-12-29T15:48:46.112Z,11.30
2023-12-29T15:51:13.856Z,11.30
2023-12-29T15:53:41.166Z,11.30
2023-12-29T15:56:08.756Z,11.30
2023-12-29T15:58:35.503Z,11.30
2023-12-29T16:01:02.249Z,11.30
2023-12-29T16:03:33.235Z,11.30
2023-12-29T16:06:02.041Z,11.20
2023-12-29T16:08:31.795Z,11.30
2023-12-29T16:11:02.160Z,11.30
2023-12-29T16:13:28.762Z,11.30
2023-12-29T16:15:55.391Z,11.30
2023-12-29T16:18:24.604Z,11.30
2023-12-29T16:20:51.302Z,11.30
2023-12-29T16:23:17.880Z,11.30
2023-12-29T16:25:44.503Z,11.30
2023-12-29T16:28:12.549Z,11.30
2023-12-29T16:30:39.239Z,11.30
2023-12-29T16:33:07.081Z,11.30
2023-12-29T16:35:34.232Z,11.20
2023-12-29T16:38:00.822Z,11.20
2023-12-29T16:40:27.503Z,11.10
2023-12-29T16:42:54.250Z,11.10
2023-12-29T16:45:20.853Z,11.10
2023-12-29T16:47:47.616Z,11.10
2023-12-29T16:50:14.807Z,11.00
2023-12-29T16:52:41.477Z,11.10
2023-12-29T16:55:08.519Z,11.00
2023-12-29T16:57:35.191Z,10.90
2023-12-29T17:00:01.899Z,10.90
2023-12-29T17:02:28.486Z,10.90
2023-12-29T17:04:55.526Z,10.90
2023-12-29T17:07:22.218Z,11.00
2023-12-29T17:09:48.969Z,10.90
2023-12-29T17:12:15.594Z,10.90
2023-12-29T17:14:42.290Z,10.90
2023-12-29T17:17:08.937Z,10.90
2023-12-29T17:19:35.806Z,10.90
2023-12-29T17:22:03.965Z,10.90
2023-12-29T17:24:32.585Z,10.90
2023-12-29T17:26:59.434Z,11.00
2023-12-29T17:29:27.265Z,10.90
2023-12-29T17:31:53.919Z,10.90
2023-12-29T17:34:20.725Z,10.80
2023-12-29T17:36:47.455Z,10.90
2023-12-29T17:39:14.128Z,10.80
2023-12-29T17:41:40.765Z,10.80
2023-12-29T17:44:07.384Z,10.80
2023-12-29T17:46:33.959Z,10.80
2023-12-29T17:49:00.791Z,10.90
2023-12-29T17:51:29.717Z,11.00
2023-12-29T17:53:56.671Z,10.90
2023-12-29T17:56:23.446Z,10.90
2023-12-29T17:58:50.247Z,10.80
2023-12-29T18:01:17.044Z,10.90
2023-12-29T18:03:43.892Z,10.80
2023-12-29T18:06:13.607Z,10.80
2023-12-29T18:08:41.792Z,10.80
2023-12-29T18:11:09.104Z,10.80
2023-12-29T18:13:36.580Z,10.90
2023-12-29T18:16:10.564Z,10.90
2023-12-29T18:18:37.841Z,10.90
2023-12-29T18:21:05.272Z,10.80
2023-12-29T18:23:32.301Z,10.80
2023-12-29T18:26:01.363Z,10.80
2023-12-29T18:28:27.971Z,10.80
2023-12-29T18:30:54.737Z,10.90
2023-12-29T18:33:21.450Z,10.90
2023-12-29T18:35:48.170Z,10.90
2023-12-29T18:38:14.795Z,10.90
2023-12-29T18:40:41.583Z,10.90
2023-12-29T18:43:08.442Z,10.90
2023-12-29T18:45:35.238Z,11.00
2023-12-29T18:48:02.445Z,10.90
2023-12-29T18:50:29.161Z,11.00
2023-12-29T18:52:55.853Z,11.00
2023-12-29T18:55:22.542Z,11.00
2023-12-29T18:57:49.472Z,11.00
2023-12-29T19:00:16.573Z,11.00
2023-12-29T19:02:43.169Z,11.00
2023-12-29T19:05:09.959Z,11.00
2023-12-29T19:07:36.669Z,11.00
2023-12-29T19:10:04.372Z,10.90
2023-12-29T19:12:31.353Z,11.00
2023-12-29T19:14:57.982Z,11.00
2023-12-29T19:17:25.746Z,11.00
2023-12-29T19:19:52.730Z,11.10
2023-12-29T19:22:19.342Z,11.00
2023-12-29T19:24:47.582Z,11.00
2023-12-29T19:27:14.622Z,11.00
2023-12-29T19:29:43.989Z,11.00
2023-12-29T19:32:11.018Z,11.00
2023-12-29T19:34:37.722Z,10.90
2023-12-29T19:37:04.808Z,11.00
2023-12-29T19:39:31.891Z,11.00
2023-12-29T19:41:58.707Z,10.90
2023-12-29T19:44:25.551Z,10.90
2023-12-29T19:46:53.620Z,10.90
2023-12-29T19:49:20.582Z,10.90
2023-12-29T19:51:47.374Z,11.00
2023-12-29T19:54:14.096Z,11.00
2023-12-29T19:56:40.742Z,11.00
2023-12-29T19:59:07.333Z,11.00
2023-12-29T20:01:41.031Z,11.00
2023-12-29T20:04:11.803Z,11.00
2023-12-29T20:06:38.641Z,10.90
2023-12-29T20:09:08.032Z,10.70
2023-12-29T20:11:44.300Z,10.70
2023-12-29T20:14:15.778Z,10.60
2023-12-29T20:16:42.632Z,10.60
2023-12-29T20:19:11.490Z,10.50
2023-12-29T20:21:39.144Z,10.60
2023-12-29T20:24:09.754Z,10.60
2023-12-29T20:26:36.861Z,10.60
2023-12-29T20:29:03.793Z,10.60
2023-12-29T20:31:32.108Z,10.60
2023-12-29T20:33:59.942Z,10.60
2023-12-29T20:36:27.736Z,10.60
2023-12-29T20:38:57.335Z,10.60
2023-12-29T20:41:25.033Z,10.60
2023-12-29T20:43:52.759Z,10.50
2023-12-29T20:46:22.905Z,10.50
2023-12-29T20:48:50.983Z,10.50
2023-12-29T20:51:21.506Z,10.50
2023-12-29T20:53:52.555Z,10.50
2023-12-29T20:56:20.172Z,10.50
2023-12-29T20:58:49.145Z,10.50
2023-12-29T21:01:19.473Z,10.40
2023-12-29T21:03:46.434Z,10.40
2023-12-29T21:06:17.746Z,10.40
2023-12-29T21:08:44.624Z,10.30
2023-12-29T21:11:22.121Z,10.30
2023-12-29T21:13:49.664Z,10.20
2023-12-29T21:16:18.046Z,10.10
2023-12-29T21:18:45.311Z,10.10
2023-12-29T21:21:12.369Z,10.00
2023-12-29T21:23:39.157Z,9.90
2023-12-29T21:26:05.819Z,9.90
2023-12-29T21:28:32.515Z,9.90
2023-12-29T21:30:59.570Z,9.90
2023-12-29T21:33:26.396Z,9.90
2023-12-29T21:35:54.311Z,9.90
2023-12-29T21:38:20.938Z,10.00
2023-12-29T21:40:48.144Z,10.00
2023-12-29T21:43:15.043Z,10.00
2023-12-29T21:45:42.253Z,10.00
2023-12-29T21:48:10.225Z,10.00
2023-12-29T21:50:37.582Z,10.10
2023-12-29T21:53:06.740Z,10.00
2023-12-29T21:55:33.830Z,10.00
2023-12-29T21:58:01.803Z,10.00
2023-12-29T22:00:28.627Z,10.00
2023-12-29T22:02:56.864Z,10.00
2023-12-29T22:05:23.574Z,10.10
2023-12-29T22:07:50.342Z,10.20
2023-12-29T22:10:18.096Z,10.20
2023-12-29T22:12:44.830Z,10.20
2023-12-29T22:15:11.736Z,10.20
2023-12-29T22:17:38.360Z,10.20
2023-12-29T22:20:05.533Z,10.20
2023-12-29T22:22:32.212Z,10.20
2023-12-29T22:24:58.932Z,10.10
2023-12-29T22:27:25.706Z,10.10
2023-12-29T22:29:52.547Z,10.10
2023-12-29T22:32:19.230Z,10.10
2023-12-29T22:34:46.060Z,10.10
2023-12-29T22:37:12.809Z,10.00
2023-12-29T22:39:39.515Z,10.00
2023-12-29T22:42:06.315Z,10.00
2023-12-29T22:44:32.982Z,10.00
2023-12-29T22:46:59.590Z,10.00
2023-12-29T22:49:26.334Z,9.90
2023-12-29T22:51:52.987Z,10.00
2023-12-29T22:54:19.626Z,10.00
2023-12-29T22:56:46.431Z,10.00
2023-12-29T22:59:13.562Z,10.00
2023-12-29T23:01:41.196Z,9.90
2023-12-29T23:04:08.098Z,9.90
2023-12-29T23:06:34.756Z,9.80
2023-12-29T23:09:01.449Z,9.80
2023-12-29T23:11:28.830Z,9.80
2023-12-29T23:13:55.450Z,9.70
2023-12-29T23:16:22.044Z,9.60
2023-12-29T23:18:50.226Z,9.70
2023-12-29T23:21:17.162Z,9.60
2023-12-29T23:23:43.842Z,9.70
2023-12-29T23:26:10.496Z,9.70
2023-12-29T23:28:37.781Z,9.70
2023-12-29T23:31:04.873Z,9.60
2023-12-29T23:33:31.651Z,9.70
2023-12-29T23:35:58.383Z,9.70
2023-12-29T23:38:25.129Z,9.70
2023-12-29T23:40:52.090Z,9.80
2023-12-29T23:43:18.733Z,9.80
2023-12-29T23:45:45.862Z,9.80
2023-12-29T23:48:12.792Z,9.70
2023-12-29T23:50:39.499Z,9.80
2023-12-29T23:53:06.138Z,9.70
2023-12-29T23:55:32.994Z,9.70
2023-12-29T23:57:59.670Z,9.70
